Time;durP1;ratioP1;P1;durP2;ratioP2;P2;SDS_P1;SDS_P2;PMS_P1;PMS_P2;Temp;Humidity;BMP_temperature;BMP_pressure;BME280_temperature;BME280_humidity;BME280_pressure;Samples;Min_cycle;Max_cycle;Signal;HPM_P1;HPM_P2
2023/07/09 00:02:23;;;;;;;0.00;0.00;;;;;;;19.70;100.00;101525.50;5053827;28;20031;-43
2023/07/09 00:04:48;;;;;;;;;;;;;;;19.84;100.00;101523.81;5054211;28;20480;-44
2023/07/09 00:07:19;;;;;;;0.00;0.00;;;;;;;19.64;100.00;101521.16;5052986;28;19913;-46
2023/07/09 00:09:44;;;;;;;0.00;0.00;;;;;;;19.64;100.00;101525.47;5053424;28;20041;-43
2023/07/09 00:12:16;;;;;;;0.00;0.00;;;;;;;19.62;100.00;101529.84;5053514;28;20075;-47
2023/07/09 00:14:42;;;;;;;0.00;0.00;;;;;;;19.60;100.00;101526.34;5052716;28;20037;-47
2023/07/09 00:17:35;;;;;;;0.00;0.00;;;;;;;19.66;100.00;101535.06;5053582;28;20070;-45
2023/07/09 00:20:04;;;;;;;0.00;0.00;;;;;;;19.64;100.00;101535.94;5050220;28;20090;-47
2023/07/09 00:22:30;;;;;;;0.00;0.00;;;;;;;19.63;100.00;101535.09;5052737;28;20385;-47
2023/07/09 00:24:57;;;;;;;0.00;0.00;;;;;;;19.54;100.00;101541.16;5053286;28;20465;-47
2023/07/09 00:27:27;;;;;;;0.00;0.00;;;;;;;19.60;100.00;101545.53;5052095;28;20465;-45
2023/07/09 00:29:52;;;;;;;0.00;0.00;;;;;;;19.57;100.00;101541.19;5053241;28;20504;-49
2023/07/09 00:32:22;;;;;;;0.00;0.00;;;;;;;19.58;100.00;101544.66;5053350;28;20104;-46
2023/07/09 00:34:48;;;;;;;0.00;0.00;;;;;;;19.57;100.00;101535.94;5052421;28;20484;-46
2023/07/09 00:37:17;;;;;;;0.00;0.00;;;;;;;19.56;100.00;101549.00;5053104;28;20017;-48
2023/07/09 00:39:42;;;;;;;0.00;0.00;;;;;;;19.48;100.00;101535.03;5052690;28;20385;-46
2023/07/09 00:42:17;;;;;;;0.00;0.00;;;;;;;19.42;100.00;101546.34;5052284;28;20029;-48
2023/07/09 00:44:51;;;;;;;0.00;0.00;;;;;;;19.39;100.00;101551.53;5052791;28;20025;-47
2023/07/09 00:47:25;;;;;;;0.00;0.00;;;;;;;19.25;100.00;101554.97;5053004;28;20090;-47
2023/07/09 00:49:59;;;;;;;0.00;0.00;;;;;;;19.31;100.00;101550.66;5052151;28;20106;-46
2023/07/09 00:52:37;;;;;;;0.05;0.05;;;;;;;19.30;100.00;101552.41;5052673;28;20477;-44
2023/07/09 00:55:11;;;;;;;0.00;0.00;;;;;;;19.23;100.00;101555.84;5052249;28;20033;-46
2023/07/09 00:57:41;;;;;;;0.10;0.00;;;;;;;19.26;100.00;101555.84;5052648;28;20021;-46
2023/07/09 01:00:12;;;;;;;0.00;0.00;;;;;;;19.25;100.00;101544.53;5052682;28;20044;-46
2023/07/09 01:02:44;;;;;;;0.00;0.00;;;;;;;19.21;100.00;101539.25;5051920;28;20021;-48
2023/07/09 01:05:12;;;;;;;0.00;0.00;;;;;;;19.20;100.00;101542.78;5052924;28;20025;-47
2023/07/09 01:07:38;;;;;;;0.00;0.00;;;;;;;19.24;100.00;101536.69;5052460;28;20033;-46
2023/07/09 01:10:04;;;;;;;0.00;0.00;;;;;;;19.21;100.00;101541.88;5051753;28;20028;-46
2023/07/09 01:12:30;;;;;;;0.10;0.00;;;;;;;19.13;100.00;101539.22;5052350;28;20021;-46
2023/07/09 01:14:58;;;;;;;0.00;0.00;;;;;;;19.12;100.00;101541.84;5052673;28;20029;-45
2023/07/09 01:17:27;;;;;;;0.00;0.00;;;;;;;19.12;100.00;101537.50;5051794;28;20059;-46
2023/07/09 01:19:54;;;;;;;0.00;0.00;;;;;;;19.03;100.00;101540.94;5053303;28;20033;-48
2023/07/09 01:22:21;;;;;;;0.00;0.00;;;;;;;19.08;100.00;101540.94;5052606;28;20021;-46
2023/07/09 01:25:04;;;;;;;0.05;0.05;;;;;;;19.05;100.00;101536.56;5051525;28;20025;-48
2023/07/09 01:27:41;;;;;;;0.00;0.00;;;;;;;19.02;100.00;101541.78;5052380;28;20114;-48
2023/07/09 01:30:30;;;;;;;0.00;0.00;;;;;;;18.91;100.00;101548.69;5051951;28;20029;-47
2023/07/09 01:32:57;;;;;;;0.00;0.00;;;;;;;18.80;100.00;101550.31;5052659;28;20067;-45
2023/07/09 01:35:23;;;;;;;;;;;;;;;18.98;100.00;101557.44;5052523;28;20381;-46
2023/07/09 01:37:49;;;;;;;0.00;0.00;;;;;;;18.52;100.00;101555.34;5051647;28;19909;-47
2023/07/09 01:40:17;;;;;;;0.10;0.10;;;;;;;18.36;100.00;101564.75;5052364;28;20021;-47
2023/07/09 01:42:42;;;;;;;0.00;0.00;;;;;;;18.40;100.00;101557.00;5052260;28;20120;-46
2023/07/09 01:45:10;;;;;;;0.00;0.00;;;;;;;18.29;100.00;101563.84;5051477;28;20057;-46
2023/07/09 01:47:36;;;;;;;0.00;0.00;;;;;;;18.30;100.00;101563.00;5052066;28;20037;-46
2023/07/09 01:50:02;;;;;;;0.00;0.00;;;;;;;18.37;100.00;101562.19;5052290;28;20377;-47
2023/07/09 01:52:29;;;;;;;0.00;0.00;;;;;;;18.44;100.00;101563.13;5051436;28;20461;-46
2023/07/09 01:54:55;;;;;;;;;;;;;;;18.54;100.00;101564.03;5052817;28;20033;-49
2023/07/09 01:57:32;;;;;;;0.00;0.00;;;;;;;18.45;100.00;101564.88;5052316;28;19920;-47
2023/07/09 01:59:59;;;;;;;0.00;0.00;;;;;;;18.34;100.00;101572.59;5051451;28;20025;-47
2023/07/09 02:02:25;;;;;;;0.10;0.10;;;;;;;18.54;100.00;101575.38;5051877;28;20468;-48
2023/07/09 02:04:53;;;;;;;0.10;0.10;;;;;;;18.54;100.00;101584.94;5052434;28;20028;-49
2023/07/09 02:07:20;;;;;;;0.00;0.00;;;;;;;18.54;100.00;101575.38;5051301;28;20500;-47
2023/07/09 02:09:45;;;;;;;0.08;0.08;;;;;;;18.49;100.00;101573.56;5051902;28;20508;-47
2023/07/09 02:12:12;;;;;;;0.00;0.00;;;;;;;18.47;100.00;101573.56;5051368;28;20033;-45
2023/07/09 02:14:39;;;;;;;0.10;0.10;;;;;;;18.44;100.00;101568.34;5055114;28;20120;-46
2023/07/09 02:17:05;;;;;;;0.00;0.00;;;;;;;18.42;100.00;101570.94;5055626;28;20416;-47
2023/07/09 02:19:31;;;;;;;0.00;0.00;;;;;;;18.42;100.00;101570.94;5054572;28;20484;-46
2023/07/09 02:21:57;;;;;;;0.00;0.00;;;;;;;18.47;100.00;101564.88;5055808;28;20500;-48
2023/07/09 02:24:27;;;;;;;0.00;0.00;;;;;;;18.40;100.00;101569.19;5055146;28;20081;-42
2023/07/09 02:26:57;;;;;;;0.00;0.00;;;;;;;18.42;100.00;101572.66;5054694;28;20469;-47
2023/07/09 02:29:24;;;;;;;0.00;0.00;;;;;;;18.39;100.00;101576.13;5055239;28;20029;-44
2023/07/09 02:31:51;;;;;;;0.05;0.00;;;;;;;18.36;100.00;101568.28;5055496;28;20021;-47
2023/07/09 02:34:18;;;;;;;0.00;0.00;;;;;;;18.38;100.00;101571.75;5054863;28;20033;-47
2023/07/09 02:36:44;;;;;;;0.00;0.00;;;;;;;18.32;100.00;101565.59;5055299;28;20035;-47
2023/07/09 02:39:10;;;;;;;0.10;0.10;;;;;;;18.26;100.00;101569.91;5055275;28;20502;-48
2023/07/09 02:41:36;;;;;;;0.00;0.00;;;;;;;18.22;100.00;101572.50;5054250;28;20464;-48
2023/07/09 02:44:02;;;;;;;0.00;0.00;;;;;;;18.29;100.00;101562.97;5055237;28;20032;-43
2023/07/09 02:46:27;;;;;;;0.00;0.00;;;;;;;18.20;100.00;101571.59;5054771;28;20029;-46
2023/07/09 02:48:53;;;;;;;0.00;0.00;;;;;;;18.14;100.00;101567.19;5054536;28;20029;-44
2023/07/09 02:51:18;;;;;;;0.00;0.00;;;;;;;18.19;100.00;101567.22;5055351;28;20042;-47
2023/07/09 02:53:43;;;;;;;0.00;0.00;;;;;;;18.15;100.00;101570.66;5054972;28;20057;-46
2023/07/09 02:56:09;;;;;;;0.00;0.00;;;;;;;18.20;100.00;101566.38;5054409;28;20465;-47
2023/07/09 02:58:34;;;;;;;0.00;0.00;;;;;;;18.17;100.00;101566.34;5054762;28;20040;-47
2023/07/09 03:00:59;;;;;;;0.05;0.00;;;;;;;18.18;100.00;101571.59;5054954;28;20049;-47
2023/07/09 03:03:24;;;;;;;0.00;0.00;;;;;;;18.11;100.00;101567.16;5054032;28;20092;-46
2023/07/09 03:05:50;;;;;;;0.00;0.00;;;;;;;18.16;100.00;101568.06;5054750;28;20470;-47
2023/07/09 03:08:15;;;;;;;0.00;0.00;;;;;;;18.12;100.00;101560.22;5054825;28;20033;-46
2023/07/09 03:10:40;;;;;;;0.00;0.00;;;;;;;18.12;100.00;101566.28;5053679;28;20021;-46
2023/07/09 03:13:06;;;;;;;0.00;0.00;;;;;;;18.08;100.00;101565.38;5054704;28;20033;-47
2023/07/09 03:15:31;;;;;;;0.00;0.00;;;;;;;18.04;100.00;101566.22;5053431;28;20025;-45
2023/07/09 03:17:57;;;;;;;0.10;0.10;;;;;;;18.07;100.00;101571.47;5054732;28;20024;-46
2023/07/09 03:20:23;;;;;;;0.10;0.10;;;;;;;18.05;100.00;101567.97;5054430;28;20025;-43
2023/07/09 03:22:48;;;;;;;0.00;0.00;;;;;;;17.96;100.00;101565.28;5053925;28;20044;-48
2023/07/09 03:25:13;;;;;;;0.00;0.00;;;;;;;18.01;100.00;101568.81;5053609;28;20055;-45
2023/07/09 03:27:39;;;;;;;0.00;0.00;;;;;;;17.89;100.00;101563.41;5054079;28;20029;-46
2023/07/09 03:30:05;;;;;;;0.00;0.00;;;;;;;17.92;100.00;101568.66;5053523;28;20029;-47
2023/07/09 03:32:30;;;;;;;0.00;0.00;;;;;;;17.92;100.00;101566.03;5053940;28;20520;-48
2023/07/09 03:34:55;;;;;;;0.00;0.00;;;;;;;17.92;100.00;101558.22;5054210;28;20112;-45
2023/07/09 03:37:21;;;;;;;0.00;0.00;;;;;;;17.94;100.00;101564.38;5053523;28;20031;-45
2023/07/09 03:39:46;;;;;;;0.00;0.00;;;;;;;17.90;100.00;101563.44;5054016;28;20037;-47
2023/07/09 03:42:11;;;;;;;0.00;0.00;;;;;;;17.90;100.00;101567.78;5054305;28;20029;-43
2023/07/09 03:44:37;;;;;;;0.00;0.00;;;;;;;17.87;100.00;101560.81;5052995;28;20115;-48
2023/07/09 03:47:03;;;;;;;0.10;0.10;;;;;;;17.83;100.00;101559.03;5054234;28;20021;-44
2023/07/09 03:49:28;;;;;;;0.00;0.00;;;;;;;17.76;100.00;101558.06;5053896;28;20453;-43
2023/07/09 03:51:54;;;;;;;0.00;0.00;;;;;;;17.79;100.00;101565.03;5053282;28;20104;-45
2023/07/09 03:54:19;;;;;;;0.00;0.00;;;;;;;17.80;100.00;101558.97;5053991;28;20050;-47
2023/07/09 03:56:44;;;;;;;0.00;0.00;;;;;;;17.82;100.00;101558.97;5053634;28;20109;-43
2023/07/09 03:59:10;;;;;;;0.00;0.00;;;;;;;17.84;100.00;101559.88;5053036;28;20025;-47
2023/07/09 04:01:35;;;;;;;0.00;0.00;;;;;;;17.84;100.00;101555.53;5053694;28;20389;-44
2023/07/09 04:04:01;;;;;;;0.00;0.00;;;;;;;17.91;100.00;101559.09;5054108;28;20104;-43
2023/07/09 04:06:26;;;;;;;0.00;0.00;;;;;;;17.92;100.00;101563.44;5052700;28;20155;-44
2023/07/09 04:08:51;;;;;;;0.00;0.00;;;;;;;18.08;100.00;101565.38;5053643;28;20366;-43
2023/07/09 04:11:17;;;;;;;0.10;0.10;;;;;;;18.20;100.00;101568.97;5053575;28;20075;-43
2023/07/09 04:13:42;;;;;;;0.00;0.00;;;;;;;18.19;100.00;101564.63;5052343;28;20028;-45
2023/07/09 04:16:09;;;;;;;0.00;0.00;;;;;;;18.26;100.00;101558.59;5053655;28;20465;-45
2023/07/09 04:18:35;;;;;;;0.00;0.00;;;;;;;18.23;100.00;101561.16;5053418;28;20390;-46
2023/07/09 04:21:01;;;;;;;0.00;0.00;;;;;;;18.33;100.00;101565.63;5052735;28;20017;-43
2023/07/09 04:23:26;;;;;;;0.20;0.00;;;;;;;18.40;100.00;101566.56;5052881;28;20053;-42
2023/07/09 04:25:54;;;;;;;0.00;0.00;;;;;;;18.39;100.00;101560.44;5052556;28;20386;-44
2023/07/09 04:28:20;;;;;;;0.00;0.00;;;;;;;18.42;100.00;101568.31;5053170;28;20112;-42
2023/07/09 04:30:50;;;;;;;0.00;0.00;;;;;;;18.50;100.00;101572.72;5053201;28;20100;-47
2023/07/09 04:33:17;;;;;;;0.00;0.00;;;;;;;18.56;100.00;101573.63;5052452;28;20373;-46
2023/07/09 04:35:44;;;;;;;0.03;0.03;;;;;;;18.65;100.00;101570.22;5052591;28;20102;-42
2023/07/09 04:38:10;;;;;;;0.00;0.00;;;;;;;18.73;100.00;101570.28;5053156;28;20457;-43
2023/07/09 04:40:35;;;;;;;0.10;0.10;;;;;;;18.75;100.00;101569.44;5052024;28;20031;-43
2023/07/09 04:43:01;;;;;;;0.00;0.00;;;;;;;18.89;100.00;101572.19;5053005;28;20106;-43
2023/07/09 04:45:26;;;;;;;0.00;0.00;;;;;;;18.99;100.00;101570.53;5052645;28;20021;-45
2023/07/09 04:47:52;;;;;;;0.10;0.10;;;;;;;19.04;100.00;101574.03;5052271;28;20025;-47
2023/07/09 04:50:18;;;;;;;0.00;0.00;;;;;;;19.15;100.00;101566.25;5053088;28;20029;-47
2023/07/09 04:52:43;;;;;;;0.00;0.00;;;;;;;19.23;100.00;101574.13;5052668;28;20027;-44
2023/07/09 04:55:09;;;;;;;0.10;0.00;;;;;;;19.24;100.00;101570.66;5052095;28;20052;-46
2023/07/09 04:57:34;;;;;;;0.10;0.10;;;;;;;19.32;100.00;101576.78;5052400;28;20025;-43
2023/07/09 05:00:00;;;;;;;0.00;0.00;;;;;;;19.38;100.00;101568.97;5053072;28;20025;-45
2023/07/09 05:02:25;;;;;;;0.00;0.00;;;;;;;19.47;100.00;101567.25;5051937;28;20108;-46
2023/07/09 05:04:51;;;;;;;0.00;0.00;;;;;;;19.55;100.00;101576.03;5052790;28;20021;-43
2023/07/09 05:07:17;;;;;;;0.00;0.00;;;;;;;19.64;100.00;101572.56;5052901;28;20033;-43
2023/07/09 05:09:42;;;;;;;0.00;0.00;;;;;;;19.69;100.00;101569.09;5051670;28;20037;-43
2023/07/09 05:12:08;;;;;;;0.00;0.00;;;;;;;19.79;100.00;101566.50;5052591;28;20112;-44
2023/07/09 05:14:33;;;;;;;0.00;0.00;;;;;;;19.91;100.00;101566.59;5052550;28;20032;-45
2023/07/09 05:16:59;;;;;;;0.00;0.00;;;;;;;20.02;100.00;101574.44;5052064;28;20025;-47
2023/07/09 05:19:24;;;;;;;0.00;0.00;;;;;;;20.12;100.00;101565.75;5052420;28;20388;-45
2023/07/09 05:21:49;;;;;;;0.10;0.10;;;;;;;20.28;100.00;101574.47;5052826;28;20033;-44
2023/07/09 05:24:15;;;;;;;0.00;0.00;;;;;;;20.47;100.00;101569.25;5051712;28;20084;-47
2023/07/09 05:26:40;;;;;;;0.00;0.00;;;;;;;20.60;100.00;101568.38;5052123;28;20045;-43
2023/07/09 05:29:06;;;;;;;0.00;0.00;;;;;;;20.71;100.00;101571.91;5052039;28;20531;-43
2023/07/09 05:31:32;;;;;;;0.13;0.00;;;;;;;20.83;100.00;101576.25;5052401;28;20376;-44
2023/07/09 05:33:59;;;;;;;0.00;0.00;;;;;;;20.96;100.00;101573.63;5052361;28;20446;-44
2023/07/09 05:36:25;;;;;;;0.00;0.00;;;;;;;21.13;100.00;101569.19;5051507;28;20036;-43
2023/07/09 05:38:51;;;;;;;0.00;0.00;;;;;;;21.26;100.00;101569.16;5052454;28;20477;-44
2023/07/09 05:41:16;;;;;;;0.00;0.00;;;;;;;21.42;100.00;101567.34;5052356;28;20025;-43
2023/07/09 05:43:45;;;;;;;0.00;0.00;;;;;;;21.58;100.00;101574.31;5051226;28;20033;-47
2023/07/09 05:46:12;;;;;;;0.00;0.00;;;;;;;21.70;100.00;101576.88;5052469;28;20021;-43
2023/07/09 05:48:37;;;;;;;0.00;0.00;;;;;;;21.84;100.00;101573.31;5054027;28;20040;-47
2023/07/09 05:51:02;;;;;;;0.00;0.00;;;;;;;21.95;100.00;101576.75;5055598;28;20029;-44
2023/07/09 05:53:27;;;;;;;0.00;0.00;;;;;;;22.08;100.00;101572.28;5055906;28;20366;-43
2023/07/09 05:55:54;;;;;;;0.00;0.00;;;;;;;22.21;100.00;101578.31;5056165;28;20104;-45
2023/07/09 05:58:19;;;;;;;0.00;0.00;;;;;;;22.36;100.00;101572.97;5055313;28;20457;-47
2023/07/09 06:00:44;;;;;;;0.00;0.00;;;;;;;22.42;100.00;101576.44;5055868;28;20040;-46
2023/07/09 06:03:10;;;;;;;0.00;0.00;;;;;;;22.55;100.00;101585.09;5056064;28;20048;-44
2023/07/09 06:05:35;;;;;;;0.00;0.00;;;;;;;22.67;100.00;101577.09;5054787;28;20099;-48
2023/07/09 06:08:01;;;;;;;0.00;0.00;;;;;;;22.79;100.00;101591.91;5055799;28;20033;-44
2023/07/09 06:10:26;;;;;;;0.00;0.00;;;;;;;22.90;100.00;101589.16;5055610;28;20029;-43
2023/07/09 06:12:52;;;;;;;0.00;0.00;;;;;;;23.02;100.00;101589.00;5055134;28;20036;-43
2023/07/09 06:15:18;;;;;;;0.00;0.00;;;;;;;23.12;98.37;101589.78;5055893;28;20025;-47
2023/07/09 06:17:43;;;;;;;0.00;0.00;;;;;;;23.23;95.80;101589.69;5055557;28;20029;-43
2023/07/09 06:20:09;;;;;;;0.00;0.00;;;;;;;23.38;96.48;101588.66;5055084;28;20025;-44
2023/07/09 06:22:34;;;;;;;0.05;0.00;;;;;;;23.46;93.95;101594.69;5055230;28;20114;-49
2023/07/09 06:25:00;;;;;;;0.10;0.00;;;;;;;23.57;92.50;101595.44;5055746;28;20021;-45
2023/07/09 06:27:25;;;;;;;0.00;0.00;;;;;;;23.65;92.73;101596.22;5054427;28;20037;-46
2023/07/09 06:29:51;;;;;;;0.00;0.00;;;;;;;23.75;94.32;101596.94;5055391;28;20055;-44
2023/07/09 06:32:16;;;;;;;0.00;0.00;;;;;;;23.84;93.48;101595.94;5055624;28;20422;-45
2023/07/09 06:34:41;;;;;;;0.08;0.00;;;;;;;23.93;90.95;101595.84;5054401;28;20041;-49
2023/07/09 06:37:07;;;;;;;0.00;0.00;;;;;;;24.06;90.41;101595.69;5055497;28;20029;-45
2023/07/09 06:39:33;;;;;;;0.00;0.00;;;;;;;24.14;91.45;101588.53;5054265;28;20104;-46
2023/07/09 06:41:58;;;;;;;0.00;0.00;;;;;;;24.26;90.66;101592.72;5055466;28;20040;-47
2023/07/09 06:44:25;;;;;;;0.00;0.00;;;;;;;24.33;88.57;101586.47;5055150;28;20025;-46
2023/07/09 06:46:50;;;;;;;0.08;0.00;;;;;;;24.41;88.54;101591.63;5053123;28;20021;-45
2023/07/09 06:49:16;;;;;;;0.00;0.00;;;;;;;24.55;89.07;101587.00;5055205;28;20028;-48
2023/07/09 06:51:41;;;;;;;0.00;0.00;;;;;;;24.64;88.19;101593.91;5054867;28;20156;-44
2023/07/09 06:54:08;;;;;;;0.00;0.00;;;;;;;24.71;85.56;101592.88;5054338;28;20099;-47
2023/07/09 06:56:33;;;;;;;0.03;0.03;;;;;;;24.78;88.55;101594.53;5054955;28;20024;-48
2023/07/09 06:58:59;;;;;;;0.08;0.00;;;;;;;24.90;85.19;101601.34;5055008;28;20025;-45
2023/07/09 07:01:24;;;;;;;0.00;0.00;;;;;;;25.04;83.61;101592.31;5053994;28;20029;-46
2023/07/09 07:03:49;;;;;;;0.00;0.00;;;;;;;25.13;82.64;101594.78;5054928;28;20437;-44
2023/07/09 07:06:16;;;;;;;0.00;0.00;;;;;;;25.23;82.65;101600.72;5054865;28;20508;-47
2023/07/09 07:08:41;;;;;;;0.20;0.00;;;;;;;25.33;81.16;101594.34;5053643;28;20024;-48
2023/07/09 07:11:06;;;;;;;0.00;0.00;;;;;;;25.45;81.39;101594.16;5054973;28;20105;-44
2023/07/09 07:13:37;;;;;;;0.00;0.00;;;;;;;25.59;79.33;101601.78;5054458;28;20384;-47
2023/07/09 07:16:05;;;;;;;0.00;0.00;;;;;;;25.70;78.35;101603.31;5054108;28;20107;-43
2023/07/09 07:18:31;;;;;;;0.00;0.00;;;;;;;25.82;78.72;101603.03;5054363;28;20032;-48
2023/07/09 07:20:56;;;;;;;0.00;0.00;;;;;;;25.90;78.54;101606.41;5054595;28;20033;-48
2023/07/09 07:23:23;;;;;;;0.00;0.00;;;;;;;26.06;78.44;101600.78;5053555;28;20048;-43
2023/07/09 07:25:48;;;;;;;0.08;0.00;;;;;;;26.17;77.28;101604.06;5054698;28;20025;-47
2023/07/09 07:28:15;;;;;;;0.00;0.00;;;;;;;26.25;76.70;101606.53;5054509;28;20412;-48
2023/07/09 07:30:40;;;;;;;0.00;0.00;;;;;;;26.29;73.52;101609.03;5053642;28;20104;-47
2023/07/09 07:33:05;;;;;;;0.00;0.00;;;;;;;26.40;72.93;101606.16;5054468;28;20059;-49
2023/07/09 07:35:31;;;;;;;0.00;0.00;;;;;;;26.56;73.21;101606.63;5054010;28;20507;-43
2023/07/09 07:37:56;;;;;;;0.00;0.00;;;;;;;26.66;71.17;101606.38;5053465;28;20033;-48
2023/07/09 07:40:22;;;;;;;0.00;0.00;;;;;;;26.69;72.17;101607.16;5054392;28;20025;-43
2023/07/09 07:42:47;;;;;;;0.00;0.00;;;;;;;26.84;72.70;101605.91;5053620;28;20036;-47
2023/07/09 07:45:12;;;;;;;0.00;0.00;;;;;;;27.02;72.21;101598.41;5054388;28;20020;-48
2023/07/09 07:47:39;;;;;;;0.00;0.00;;;;;;;27.02;66.81;101601.06;5053904;28;20032;-46
2023/07/09 07:50:05;;;;;;;0.00;0.00;;;;;;;27.09;67.73;101605.28;5053364;28;20037;-47
2023/07/09 07:52:31;;;;;;;0.00;0.00;;;;;;;27.14;68.03;101598.09;5053734;28;20025;-48
2023/07/09 07:54:56;;;;;;;0.00;0.00;;;;;;;27.24;68.92;101601.31;5054190;28;20424;-48
2023/07/09 07:57:24;;;;;;;0.00;0.00;;;;;;;27.47;68.29;101599.84;5053029;28;20108;-49
2023/07/09 07:59:49;;;;;;;0.00;0.00;;;;;;;27.55;67.68;101598.69;5053801;28;20481;-45
2023/07/09 08:02:15;;;;;;;0.00;0.00;;;;;;;27.62;67.26;101603.78;5053792;28;20034;-49
2023/07/09 08:04:41;;;;;;;0.00;0.00;;;;;;;27.67;65.16;101607.16;5052758;28;20033;-49
2023/07/09 08:07:10;;;;;;;0.00;0.00;;;;;;;27.76;63.74;101606.91;5053608;28;20021;-48
2023/07/09 08:09:36;;;;;;;0.00;0.00;;;;;;;27.86;60.99;101600.41;5053435;28;20025;-46
2023/07/09 08:12:08;;;;;;;0.00;0.00;;;;;;;27.95;59.80;101595.72;5052287;28;20043;-47
2023/07/09 08:14:34;;;;;;;0.00;0.00;;;;;;;28.17;62.56;101599.44;5053464;28;20063;-49
2023/07/09 08:16:59;;;;;;;0.00;0.00;;;;;;;28.23;60.41;101596.59;5053567;28;20052;-50
2023/07/09 08:19:25;;;;;;;0.00;0.00;;;;;;;28.29;56.74;101590.25;5052480;28;20021;-45
2023/07/09 08:21:50;;;;;;;0.00;0.00;;;;;;;28.37;56.31;101597.94;5053593;28;20103;-44
2023/07/09 08:24:15;;;;;;;0.00;0.00;;;;;;;28.45;56.44;101606.50;5053277;28;20349;-49
2023/07/09 08:26:41;;;;;;;0.00;0.00;;;;;;;28.48;55.25;101601.06;5052366;28;20036;-48
2023/07/09 08:29:06;;;;;;;0.00;0.00;;;;;;;28.62;55.66;101597.09;5053449;28;20095;-44
2023/07/09 08:31:31;;;;;;;0.00;0.00;;;;;;;28.74;53.63;101591.38;5053067;28;20032;-48
2023/07/09 08:33:57;;;;;;;0.00;0.00;;;;;;;28.87;55.26;101592.72;5052490;28;20024;-48
2023/07/09 08:36:23;;;;;;;0.00;0.00;;;;;;;28.91;52.95;101583.72;5053040;28;20029;-44
2023/07/09 08:38:48;;;;;;;0.00;0.00;;;;;;;29.07;54.30;101583.16;5053315;28;20283;-49
2023/07/09 08:41:26;;;;;;;0.00;0.00;;;;;;;29.12;55.17;101591.81;5052468;28;20078;-45
2023/07/09 08:44:16;;;;;;;0.00;0.00;;;;;;;29.16;55.05;101588.13;5053130;28;20037;-48
2023/07/09 08:46:54;;;;;;;0.00;0.00;;;;;;;29.16;52.57;101588.13;5051791;28;20032;-50
2023/07/09 08:49:30;;;;;;;0.25;0.00;;;;;;;29.22;50.05;101585.25;5053308;28;20028;-44
2023/07/09 08:51:57;;;;;;;0.00;0.00;;;;;;;29.24;48.87;101586.06;5052992;28;20461;-44
2023/07/09 08:54:30;;;;;;;0.00;0.00;;;;;;;29.28;51.26;101593.94;5051811;28;20481;-45
2023/07/09 08:57:05;;;;;;;0.00;0.00;;;;;;;29.36;51.35;101595.38;5052816;28;20473;-48
2023/07/09 08:59:31;;;;;;;0.00;0.00;;;;;;;29.43;51.09;101590.69;5052797;28;20094;-50
2023/07/09 09:01:59;;;;;;;0.00;0.00;;;;;;;29.51;49.58;101599.22;5052248;28;20048;-48
2023/07/09 09:04:28;;;;;;;0.00;0.00;;;;;;;29.70;50.86;101598.53;5052664;28;20040;-48
2023/07/09 09:07:20;;;;;;;0.00;0.00;;;;;;;29.70;51.19;101593.22;5052824;28;20039;-49
2023/07/09 09:09:56;;;;;;;0.00;0.00;;;;;;;29.68;49.60;101584.44;5050001;28;20033;-47
2023/07/09 09:12:28;;;;;;;0.00;0.00;;;;;;;29.67;48.27;101582.69;5052924;28;20041;-46
2023/07/09 09:15:24;;;;;;;0.00;0.00;;;;;;;29.90;49.28;101579.16;5052051;28;20024;-44
2023/07/09 09:17:55;;;;;;;0.00;0.00;;;;;;;29.81;48.03;101585.69;5048204;28;20115;-47
2023/07/09 09:20:22;;;;;;;0.00;0.00;;;;;;;29.86;48.65;101580.19;5052935;28;20090;-46
2023/07/09 09:22:47;;;;;;;;;;;;;;;29.99;48.57;101583.25;5052632;28;20515;-48
2023/07/09 09:25:24;;;;;;;0.00;0.00;;;;;;;30.01;47.63;101579.59;5056992;28;19948;-49
2023/07/09 09:27:49;;;;;;;0.00;0.00;;;;;;;30.13;48.23;101578.22;5056706;28;20055;-48
2023/07/09 09:30:18;;;;;;;0.00;0.00;;;;;;;30.34;48.07;101584.47;5055957;28;20052;-49
2023/07/09 09:33:05;;;;;;;0.00;0.00;;;;;;;30.33;44.83;101588.03;5056278;28;20032;-49
2023/07/09 09:35:34;;;;;;;0.00;0.00;;;;;;;30.75;45.77;101578.31;5055274;28;20068;-48
2023/07/09 09:38:00;;;;;;;0.00;0.00;;;;;;;30.62;44.81;101572.66;5056654;28;20108;-49
2023/07/09 09:40:32;;;;;;;0.00;0.00;;;;;;;30.68;44.14;101574.19;5056378;28;20036;-48
2023/07/09 09:43:00;;;;;;;0.00;0.00;;;;;;;30.87;45.01;101560.91;5055653;28;20025;-47
2023/07/09 09:45:32;;;;;;;0.00;0.00;;;;;;;31.11;44.85;101556.31;5056114;28;20031;-48
2023/07/09 09:48:00;;;;;;;0.00;0.00;;;;;;;31.50;45.85;101560.75;5056459;28;20108;-47
2023/07/09 09:50:31;;;;;;;0.00;0.00;;;;;;;31.72;46.13;101554.38;5055148;28;20376;-50
2023/07/09 09:52:58;;;;;;;0.00;0.00;;;;;;;31.85;44.31;101550.22;5056342;28;20025;-48
2023/07/09 09:55:25;;;;;;;;;;;;;;;32.01;46.23;101554.78;5056479;28;20473;-47
2023/07/09 09:57:53;;;;;;;0.00;0.00;;;;;;;32.61;45.05;101545.53;5055308;28;19916;-45
2023/07/09 10:00:22;;;;;;;0.00;0.00;;;;;;;32.52;42.02;101544.22;5056007;28;20120;-44
2023/07/09 10:02:48;;;;;;;0.03;0.00;;;;;;;32.46;39.45;101534.72;5056261;28;20029;-49
2023/07/09 10:05:15;;;;;;;0.00;0.00;;;;;;;32.36;41.15;101537.94;5055407;28;20017;-47
2023/07/09 10:08:22;;;;;;;0.00;0.00;;;;;;;32.97;45.23;101536.53;5055741;28;20040;-47
2023/07/09 10:10:51;;;;;;;0.00;0.00;;;;;;;33.74;41.28;101545.66;5055062;28;20033;-47
2023/07/09 10:13:34;;;;;;;0.00;0.00;;;;;;;33.79;41.11;101540.91;5056108;28;20021;-46
2023/07/09 10:16:23;;;;;;;0.00;0.00;;;;;;;34.28;40.13;101552.34;5055875;28;20025;-47
2023/07/09 10:19:10;;;;;;;0.00;0.00;;;;;;;35.30;38.20;101547.94;5054879;28;20025;-48
2023/07/09 10:21:41;;;;;;;0.00;0.00;;;;;;;35.57;39.20;101545.31;5055499;28;20032;-44
2023/07/09 10:24:32;;;;;;;0.00;0.00;;;;;;;36.20;38.84;101553.69;5055602;28;20127;-48
2023/07/09 10:27:10;;;;;;;0.00;0.00;;;;;;;36.67;34.21;101557.63;5055779;28;20035;-48
2023/07/09 10:30:13;;;;;;;0.00;0.00;;;;;;;37.19;35.60;101568.34;5055538;28;20021;-44
2023/07/09 10:33:01;;;;;;;0.00;0.00;;;;;;;37.60;31.72;101561.78;5054469;28;20036;-46
2023/07/09 10:35:37;;;;;;;0.00;0.00;;;;;;;37.65;32.63;101569.50;5054552;28;20021;-47
2023/07/09 10:38:34;;;;;;;0.00;0.00;;;;;;;38.86;33.13;101572.00;5055593;28;20354;-48
2023/07/09 10:41:05;;;;;;;0.00;0.00;;;;;;;39.80;30.07;101572.47;5055345;28;20079;-46
2023/07/09 10:43:57;;;;;;;0.00;0.00;;;;;;;39.95;30.02;101570.34;5054983;28;20029;-48
2023/07/09 10:46:27;;;;;;;0.00;0.00;;;;;;;40.39;29.63;101577.47;5053914;28;20044;-45
2023/07/09 10:48:54;;;;;;;0.00;0.00;;;;;;;39.74;26.54;101574.84;5055276;28;20028;-49
2023/07/09 10:51:30;;;;;;;0.00;0.00;;;;;;;39.65;27.70;101573.75;5055235;28;20082;-47
2023/07/09 10:54:04;;;;;;;;;;;;;;;40.27;28.72;101572.16;5054790;28;20060;-48
2023/07/09 10:56:35;;;;;;;0.00;0.00;;;;;;;40.17;29.62;101563.13;5054788;28;20414;-43
2023/07/09 10:59:31;;;;;;;0.00;0.00;;;;;;;40.33;29.51;101558.09;5055248;28;20024;-48
2023/07/09 11:02:11;;;;;;;;;;;;;;;40.96;30.62;101549.06;5054543;28;20447;-48
2023/07/09 11:04:46;;;;;;;0.00;0.00;;;;;;;40.23;28.21;101545.53;5054868;28;19914;-47
2023/07/09 11:07:17;;;;;;;0.00;0.00;;;;;;;40.88;27.15;101546.19;5054218;28;20021;-48
2023/07/09 11:09:45;;;;;;;0.00;0.00;;;;;;;40.15;27.06;101543.50;5054574;28;20040;-47
2023/07/09 11:12:22;;;;;;;0.00;0.00;;;;;;;39.87;27.82;101547.66;5054792;28;20404;-48
2023/07/09 11:14:58;;;;;;;0.00;0.00;;;;;;;39.39;27.90;101546.22;5053978;28;20033;-48
2023/07/09 11:17:27;;;;;;;0.00;0.00;;;;;;;38.86;28.83;101558.50;5054452;28;20028;-48
2023/07/09 11:19:58;;;;;;;0.00;0.00;;;;;;;38.17;29.31;101562.06;5054774;28;20083;-48
2023/07/09 11:22:27;;;;;;;0.00;0.00;;;;;;;37.88;31.80;101549.84;5053441;28;20021;-45
2023/07/09 11:25:11;;;;;;;0.00;0.00;;;;;;;38.21;31.72;101561.69;5054549;28;20090;-48
2023/07/09 11:28:06;;;;;;;0.00;0.00;;;;;;;38.74;30.68;101572.94;5054309;28;20032;-48
2023/07/09 11:30:32;;;;;;;0.00;0.00;;;;;;;37.82;31.82;101562.88;5049355;28;20043;-47